createdAt,value
2019-02-16T00:01:41.824Z,16.62
2019-02-16T00:04:11.059Z,16.90
2019-02-16T00:06:41.245Z,18.02
2019-02-16T00:09:11.615Z,17.42
2019-02-16T00:11:41.954Z,16.70
2019-02-16T00:14:12.197Z,16.07
2019-02-16T00:16:42.538Z,16.60
2019-02-16T00:19:12.897Z,16.65
2019-02-16T00:21:43.253Z,17.62
2019-02-16T00:24:13.634Z,16.67
2019-02-16T00:26:44.016Z,16.85
2019-02-16T00:29:14.377Z,16.70
2019-02-16T00:31:44.735Z,18.00
2019-02-16T00:34:15.133Z,16.57
2019-02-16T00:36:45.498Z,17.27
2019-02-16T00:39:15.832Z,16.52
2019-02-16T00:41:46.169Z,16.75
2019-02-16T00:44:16.455Z,17.25
2019-02-16T00:46:47.075Z,16.70
2019-02-16T00:49:17.566Z,17.60
2019-02-16T00:51:48.154Z,16.75
2019-02-16T00:54:18.498Z,16.02
2019-02-16T00:56:48.891Z,17.27
2019-02-16T00:59:19.231Z,16.45
2019-02-16T01:01:49.615Z,18.25
2019-02-16T01:04:19.903Z,17.07
2019-02-16T01:06:50.473Z,16.70
2019-02-16T01:09:20.799Z,16.65
2019-02-16T01:11:51.095Z,17.17
2019-02-16T01:14:21.458Z,16.73
2019-02-16T01:16:51.864Z,17.35
2019-02-16T01:19:22.143Z,17.10
2019-02-16T01:21:52.431Z,16.87
2019-02-16T01:24:22.765Z,17.32
2019-02-16T01:26:53.194Z,17.37
2019-02-16T01:29:23.487Z,18.12
2019-02-16T01:31:53.861Z,16.93
2019-02-16T01:34:24.129Z,17.37
2019-02-16T01:36:54.480Z,17.35
2019-02-16T01:39:24.851Z,17.67
2019-02-16T01:41:55.184Z,17.15
2019-02-16T01:44:25.544Z,16.57
2019-02-16T01:46:55.839Z,17.62
2019-02-16T01:49:26.153Z,17.45
2019-02-16T01:51:56.430Z,16.10
2019-02-16T01:54:26.729Z,16.55
2019-02-16T01:56:57.096Z,17.07
2019-02-16T01:59:27.445Z,17.52
2019-02-16T02:01:57.850Z,15.85
2019-02-16T02:04:28.255Z,17.52
2019-02-16T02:06:58.758Z,17.07
2019-02-16T02:09:29.061Z,17.90
2019-02-16T02:11:59.493Z,16.90
2019-02-16T02:14:29.808Z,16.97
2019-02-16T02:17:00.019Z,17.57
2019-02-16T02:19:30.297Z,17.00
2019-02-16T02:22:00.663Z,17.07
2019-02-16T02:24:32.146Z,17.87
2019-02-16T02:27:04.815Z,17.32
2019-02-16T02:29:35.221Z,16.70
2019-02-16T02:32:05.546Z,16.97
2019-02-16T02:34:35.940Z,17.12
2019-02-16T02:37:06.287Z,16.30
2019-02-16T02:39:36.608Z,17.57
2019-02-16T02:42:07.025Z,17.42
2019-02-16T02:44:37.326Z,17.42
2019-02-16T02:47:07.774Z,16.93
2019-02-16T02:49:38.510Z,16.97
2019-02-16T02:52:08.880Z,17.62
2019-02-16T02:54:39.287Z,18.02
2019-02-16T02:57:09.576Z,17.07
2019-02-16T02:59:39.924Z,17.62
2019-02-16T03:02:10.172Z,17.15
2019-02-16T03:04:40.541Z,17.45
2019-02-16T03:07:10.975Z,16.95
2019-02-16T03:09:41.291Z,17.32
2019-02-16T03:12:11.612Z,18.02
2019-02-16T03:14:41.965Z,17.10
2019-02-16T03:17:13.437Z,16.85
2019-02-16T03:19:43.748Z,17.35
2019-02-16T03:22:14.058Z,16.93
2019-02-16T03:24:44.471Z,17.65
2019-02-16T03:27:37.709Z,17.45
2019-02-16T03:30:44.886Z,18.37
2019-02-16T03:33:32.683Z,16.75
2019-02-16T03:36:27.664Z,17.80
2019-02-16T03:39:17.310Z,17.52
2019-02-16T03:41:47.588Z,18.45
2019-02-16T03:44:17.843Z,17.50
2019-02-16T03:46:48.136Z,17.65
2019-02-16T03:49:18.395Z,18.42
2019-02-16T03:51:48.662Z,18.00
2019-02-16T03:54:19.016Z,17.30
2019-02-16T03:56:49.298Z,18.23
2019-02-16T03:59:19.666Z,17.32
2019-02-16T04:01:50.013Z,16.55
2019-02-16T04:04:20.380Z,17.95
2019-02-16T04:06:50.737Z,17.35
2019-02-16T04:09:21.067Z,17.55
2019-02-16T04:11:51.436Z,17.42
2019-02-16T04:14:21.733Z,18.55
2019-02-16T04:16:52.043Z,17.90
2019-02-16T04:19:22.435Z,17.55
2019-02-16T04:21:52.814Z,18.62
2019-02-16T04:24:23.222Z,17.65
2019-02-16T04:26:53.611Z,18.50
2019-02-16T04:29:24.017Z,17.25
2019-02-16T04:31:54.355Z,17.52
2019-02-16T04:34:24.650Z,17.52
2019-02-16T04:36:54.946Z,17.65
2019-02-16T04:39:25.247Z,17.60
2019-02-16T04:41:55.892Z,18.92
2019-02-16T04:44:26.209Z,17.15
2019-02-16T04:46:56.545Z,17.87
2019-02-16T04:49:26.953Z,18.75
2019-02-16T04:51:57.240Z,18.42
2019-02-16T04:54:27.516Z,18.60
2019-02-16T04:56:57.796Z,18.10
2019-02-16T04:59:28.112Z,18.40
2019-02-16T05:02:00.776Z,18.25
2019-02-16T05:04:31.160Z,18.27
2019-02-16T05:07:01.489Z,18.50
2019-02-16T05:09:31.854Z,18.75
2019-02-16T05:12:02.391Z,17.82
2019-02-16T05:14:31.902Z,18.42
2019-02-16T05:17:02.152Z,17.52
2019-02-16T05:19:32.482Z,18.92
2019-02-16T05:22:02.769Z,18.50
2019-02-16T05:24:33.194Z,17.48
2019-02-16T05:27:03.488Z,18.37
2019-02-16T05:29:33.915Z,19.50
2019-02-16T05:32:04.223Z,18.45
2019-02-16T05:34:35.073Z,18.48
2019-02-16T05:37:05.537Z,18.80
2019-02-16T05:39:35.925Z,18.80
2019-02-16T05:42:06.235Z,18.70
2019-02-16T05:44:36.627Z,18.25
2019-02-16T05:47:06.996Z,18.80
2019-02-16T05:49:37.300Z,18.37
2019-02-16T05:52:07.568Z,19.10
2019-02-16T05:54:37.984Z,19.23
2019-02-16T05:57:08.296Z,18.65
2019-02-16T05:59:38.687Z,18.42
2019-02-16T06:02:10.115Z,19.07
2019-02-16T06:04:40.442Z,19.32
2019-02-16T06:07:10.772Z,19.50
2019-02-16T06:09:41.212Z,19.32
2019-02-16T06:12:11.487Z,19.80
2019-02-16T06:14:41.828Z,18.82
2019-02-16T06:17:12.193Z,18.55
2019-02-16T06:19:43.407Z,19.30
2019-02-16T06:22:13.699Z,19.45
2019-02-16T06:24:44.005Z,21.17
2019-02-16T06:27:14.316Z,20.97
2019-02-16T06:29:44.669Z,20.20
2019-02-16T06:32:15.120Z,20.68
2019-02-16T06:34:46.600Z,21.27
2019-02-16T06:37:23.705Z,22.35
2019-02-16T06:39:54.018Z,21.52
2019-02-16T06:42:24.329Z,23.35
2019-02-16T06:44:54.765Z,23.15
2019-02-16T06:47:25.038Z,24.77
2019-02-16T06:49:55.354Z,23.75
2019-02-16T06:52:25.669Z,24.80
2019-02-16T06:54:56.010Z,24.02
2019-02-16T06:57:30.980Z,24.82
2019-02-16T07:00:01.318Z,25.40
2019-02-16T07:02:31.598Z,24.98
2019-02-16T07:05:01.902Z,24.95
2019-02-16T07:07:32.243Z,24.40
2019-02-16T07:10:02.593Z,25.40
2019-02-16T07:12:32.958Z,23.40
2019-02-16T07:15:03.208Z,24.45
2019-02-16T07:17:58.089Z,24.30
2019-02-16T07:20:28.374Z,24.35
2019-02-16T07:22:58.764Z,24.27
2019-02-16T07:25:29.144Z,22.22
2019-02-16T07:27:59.435Z,23.02
2019-02-16T07:30:30.219Z,23.10
2019-02-16T07:33:00.688Z,22.85
2019-02-16T07:35:31.026Z,22.27
2019-02-16T07:38:01.963Z,22.58
2019-02-16T07:40:32.320Z,22.52
2019-02-16T07:43:02.613Z,22.42
2019-02-16T07:45:50.555Z,21.77
2019-02-16T07:48:27.725Z,21.50
2019-02-16T07:51:20.077Z,22.45
2019-02-16T07:54:18.249Z,20.85
2019-02-16T07:56:56.040Z,22.30
2019-02-16T07:59:51.600Z,21.00
2019-02-16T08:02:56.119Z,20.72
2019-02-16T08:05:47.890Z,20.43
2019-02-16T08:08:27.140Z,21.07
2019-02-16T08:11:19.294Z,20.80
2019-02-16T08:14:08.418Z,21.10
2019-02-16T08:16:55.740Z,20.30
2019-02-16T08:19:54.022Z,20.10
2019-02-16T08:22:43.326Z,20.77
2019-02-16T08:25:38.673Z,19.07
2019-02-16T08:28:17.123Z,18.60
2019-02-16T08:31:00.627Z,18.57
2019-02-16T08:33:36.094Z,18.80
2019-02-16T08:36:19.781Z,19.15
2019-02-16T08:39:24.275Z,19.67
2019-02-16T08:42:16.659Z,18.25
2019-02-16T08:44:55.406Z,18.55
2019-02-16T08:47:35.036Z,17.90
2019-02-16T08:50:27.277Z,19.05
2019-02-16T08:53:16.641Z,17.77
2019-02-16T08:56:03.548Z,18.42
2019-02-16T08:59:01.690Z,18.82
2019-02-16T09:01:50.503Z,17.40
2019-02-16T09:04:39.841Z,17.62
2019-02-16T09:07:28.158Z,18.70
2019-02-16T09:10:18.316Z,17.67
2019-02-16T09:13:17.013Z,17.02
2019-02-16T09:16:12.561Z,17.62
2019-02-16T09:19:11.028Z,17.17
2019-02-16T09:22:03.004Z,17.20
2019-02-16T09:24:49.391Z,16.95
2019-02-16T09:27:47.813Z,16.23
2019-02-16T09:30:41.221Z,16.40
2019-02-16T09:33:28.144Z,15.98
2019-02-16T09:36:13.451Z,16.45
2019-02-16T09:39:05.900Z,16.27
2019-02-16T09:41:58.988Z,17.12
2019-02-16T09:44:52.283Z,16.12
2019-02-16T09:47:47.432Z,16.52
2019-02-16T09:50:36.647Z,16.23
2019-02-16T09:53:25.964Z,15.50
2019-02-16T09:56:14.747Z,15.60
2019-02-16T09:59:16.205Z,15.80
2019-02-16T10:02:14.221Z,15.78
2019-02-16T10:05:03.433Z,15.28
2019-02-16T10:07:44.279Z,14.73
2019-02-16T10:10:33.612Z,15.10
2019-02-16T10:13:28.738Z,15.50
2019-02-16T10:16:13.085Z,15.38
2019-02-16T10:19:11.297Z,15.23
2019-02-16T10:21:51.624Z,14.53
2019-02-16T10:24:32.869Z,14.15
2019-02-16T10:27:18.623Z,15.08
2019-02-16T10:30:17.023Z,14.38
2019-02-16T10:33:09.340Z,15.23
2019-02-16T10:35:57.412Z,14.00
2019-02-16T10:38:27.987Z,14.45
2019-02-16T10:41:13.089Z,14.18
2019-02-16T10:44:02.613Z,14.78
2019-02-16T10:46:51.806Z,13.90
2019-02-16T10:49:39.938Z,13.40
2019-02-16T10:52:28.954Z,13.88
2019-02-16T10:55:12.166Z,13.85
2019-02-16T10:57:59.952Z,14.60
2019-02-16T11:00:47.661Z,13.78
2019-02-16T11:03:49.243Z,14.30
2019-02-16T11:06:51.599Z,13.40
2019-02-16T11:09:49.409Z,13.00
2019-02-16T11:12:41.417Z,13.15
2019-02-16T11:15:50.932Z,13.25
2019-02-16T11:18:49.070Z,13.48
2019-02-16T11:21:35.599Z,12.70
2019-02-16T11:24:13.406Z,13.00
2019-02-16T11:27:12.144Z,13.00
2019-02-16T11:30:01.935Z,13.13
2019-02-16T11:32:53.943Z,12.90
2019-02-16T11:35:30.418Z,13.00
2019-02-16T11:38:06.039Z,12.40
2019-02-16T11:40:51.364Z,12.37
2019-02-16T11:43:29.725Z,11.40
2019-02-16T11:46:04.391Z,12.40
2019-02-16T11:48:46.208Z,12.20
2019-02-16T11:51:35.403Z,12.05
2019-02-16T11:54:27.685Z,12.20
2019-02-16T11:57:23.179Z,12.47
2019-02-16T12:00:02.615Z,12.23
2019-02-16T12:02:52.905Z,12.25
2019-02-16T12:05:44.003Z,11.08
2019-02-16T12:08:28.119Z,12.15
2019-02-16T12:11:16.079Z,11.88
2019-02-16T12:14:05.248Z,12.68
2019-02-16T12:16:44.117Z,12.07
2019-02-16T12:19:32.023Z,11.90
2019-02-16T12:22:24.276Z,11.45
2019-02-16T12:25:19.361Z,11.57
2019-02-16T12:28:21.558Z,11.33
2019-02-16T12:31:21.625Z,11.83
2019-02-16T12:34:22.961Z,10.88
2019-02-16T12:37:05.814Z,10.82
2019-02-16T12:39:43.298Z,11.25
2019-02-16T12:42:27.203Z,11.78
2019-02-16T12:45:17.433Z,11.88
2019-02-16T12:48:07.808Z,10.53
2019-02-16T12:50:56.988Z,11.15
2019-02-16T12:53:41.313Z,10.90
2019-02-16T12:56:20.523Z,10.95
2019-02-16T12:59:15.894Z,10.60
2019-02-16T13:01:53.710Z,10.08
2019-02-16T13:04:58.262Z,10.58
2019-02-16T13:07:33.956Z,11.20
2019-02-16T13:10:38.396Z,10.28
2019-02-16T13:13:30.723Z,10.85
2019-02-16T13:16:32.040Z,9.90
2019-02-16T13:19:18.078Z,10.60
2019-02-16T13:22:13.325Z,10.40
2019-02-16T13:25:02.524Z,9.73
2019-02-16T13:28:06.830Z,9.68
2019-02-16T13:30:56.146Z,9.98
2019-02-16T13:33:51.168Z,9.15
2019-02-16T13:36:49.290Z,9.38
2019-02-16T13:39:29.078Z,9.68
2019-02-16T13:42:17.287Z,9.63
2019-02-16T13:44:55.996Z,9.70
2019-02-16T13:47:39.973Z,9.93
2019-02-16T13:50:34.969Z,9.28
2019-02-16T13:53:23.358Z,8.90
2019-02-16T13:56:18.595Z,9.38
2019-02-16T13:59:10.826Z,9.63
2019-02-16T14:01:47.523Z,8.90
2019-02-16T14:04:31.323Z,8.98
2019-02-16T14:07:20.460Z,9.08
2019-02-16T14:10:07.369Z,8.85
2019-02-16T14:12:57.663Z,9.23
2019-02-16T14:15:45.627Z,9.30
2019-02-16T14:18:14.764Z,9.35
2019-02-16T14:20:44.899Z,8.75
2019-02-16T14:23:14.102Z,9.03
2019-02-16T14:25:46.089Z,8.18
2019-02-16T14:28:16.385Z,8.38
2019-02-16T14:30:46.725Z,8.78
2019-02-16T14:33:15.923Z,8.35
2019-02-16T14:35:46.142Z,8.58
2019-02-16T14:38:36.527Z,8.38
2019-02-16T14:41:06.808Z,8.28
2019-02-16T14:43:37.996Z,8.35
2019-02-16T14:46:08.362Z,8.13
2019-02-16T14:48:38.622Z,8.68
2019-02-16T14:51:08.966Z,8.08
2019-02-16T14:53:39.189Z,8.45
2019-02-16T14:56:09.513Z,7.65
2019-02-16T14:58:39.845Z,7.75
2019-02-16T15:01:13.306Z,8.70
2019-02-16T15:03:43.602Z,7.97
2019-02-16T15:06:13.904Z,8.18
2019-02-16T15:08:44.206Z,8.15
2019-02-16T15:11:14.887Z,8.23
2019-02-16T15:13:45.232Z,7.25
2019-02-16T15:16:16.596Z,7.72
2019-02-16T15:18:46.989Z,7.25
2019-02-16T15:21:17.359Z,7.75
2019-02-16T15:23:47.667Z,7.45
2019-02-16T15:26:18.093Z,7.22
2019-02-16T15:28:48.421Z,7.50
2019-02-16T15:31:18.734Z,6.97
2019-02-16T15:33:49.102Z,7.58
2019-02-16T15:36:23.940Z,7.45
2019-02-16T15:38:51.472Z,7.83
2019-02-16T15:41:21.772Z,6.72
2019-02-16T15:43:52.098Z,7.17
2019-02-16T15:46:22.489Z,7.50
2019-02-16T15:48:52.786Z,6.95
2019-02-16T15:51:23.075Z,6.83
2019-02-16T15:53:53.376Z,7.10
2019-02-16T15:56:23.672Z,6.95
2019-02-16T15:58:54.065Z,6.75
2019-02-16T16:01:24.347Z,7.03
2019-02-16T16:03:54.574Z,7.35
2019-02-16T16:06:24.929Z,6.83
2019-02-16T16:09:03.764Z,6.90
2019-02-16T16:11:46.482Z,7.30
2019-02-16T16:14:30.296Z,6.58
2019-02-16T16:17:22.548Z,6.60
2019-02-16T16:20:01.480Z,6.67
2019-02-16T16:22:53.455Z,6.92
2019-02-16T16:25:42.834Z,6.08
2019-02-16T16:28:41.165Z,6.65
2019-02-16T16:31:21.709Z,6.85
2019-02-16T16:34:16.732Z,6.55
2019-02-16T16:37:07.867Z,6.50
2019-02-16T16:39:50.854Z,6.40
2019-02-16T16:42:47.397Z,5.67
2019-02-16T16:45:45.708Z,7.00
2019-02-16T16:48:34.048Z,6.47
2019-02-16T16:51:40.928Z,6.10
2019-02-16T16:54:17.225Z,6.95
2019-02-16T16:57:02.292Z,6.10
2019-02-16T17:00:09.878Z,5.83
2019-02-16T17:02:57.596Z,6.72
2019-02-16T17:05:44.419Z,6.58
2019-02-16T17:08:34.242Z,6.30
2019-02-16T17:11:29.761Z,6.17
2019-02-16T17:14:09.810Z,6.03
2019-02-16T17:16:56.439Z,5.50
2019-02-16T17:19:35.393Z,6.00
2019-02-16T17:22:24.650Z,6.45
2019-02-16T17:25:31.750Z,6.28
2019-02-16T17:28:16.160Z,6.00
2019-02-16T17:31:14.805Z,6.53
2019-02-16T17:33:55.436Z,6.55
2019-02-16T17:36:44.644Z,5.80
2019-02-16T17:39:27.095Z,5.75
2019-02-16T17:42:34.503Z,5.85
2019-02-16T17:45:29.431Z,5.62
2019-02-16T17:48:34.069Z,5.65
2019-02-16T17:51:26.022Z,5.80
2019-02-16T17:54:21.105Z,6.22
2019-02-16T17:57:06.923Z,5.78
2019-02-16T17:59:56.369Z,5.80
2019-02-16T18:02:45.630Z,5.85
2019-02-16T18:05:36.953Z,5.80
2019-02-16T18:08:25.257Z,5.97
2019-02-16T18:11:13.697Z,5.58
2019-02-16T18:14:06.724Z,5.72
2019-02-16T18:16:49.048Z,5.33
2019-02-16T18:19:35.482Z,5.20
2019-02-16T18:22:24.627Z,5.40
2019-02-16T18:25:08.920Z,5.80
2019-02-16T18:28:16.499Z,5.60
2019-02-16T18:31:05.730Z,5.45
2019-02-16T18:34:10.239Z,5.20
2019-02-16T18:36:53.632Z,5.40
2019-02-16T18:39:37.398Z,5.62
2019-02-16T18:42:22.378Z,5.05
2019-02-16T18:45:12.446Z,5.40
2019-02-16T18:48:02.810Z,5.05
2019-02-16T18:50:55.003Z,5.72
2019-02-16T18:53:53.224Z,5.35
2019-02-16T18:56:41.419Z,4.97
2019-02-16T18:59:36.359Z,6.05
2019-02-16T19:02:32.687Z,5.05
2019-02-16T19:05:20.933Z,5.78
2019-02-16T19:08:10.213Z,6.35
2019-02-16T19:10:49.989Z,7.15
2019-02-16T19:13:48.490Z,6.85
2019-02-16T19:16:49.866Z,6.08
2019-02-16T19:19:28.478Z,6.40
2019-02-16T19:22:14.328Z,6.80
2019-02-16T19:25:02.347Z,6.80
2019-02-16T19:27:54.156Z,6.87
2019-02-16T19:30:52.824Z,7.90
2019-02-16T19:33:42.069Z,6.95
2019-02-16T19:36:22.483Z,7.00
2019-02-16T19:39:15.357Z,7.45
2019-02-16T19:42:15.158Z,7.25
2019-02-16T19:45:17.342Z,8.10
2019-02-16T19:48:09.842Z,8.00
2019-02-16T19:50:58.838Z,7.75
2019-02-16T19:53:48.642Z,8.15
2019-02-16T19:56:43.415Z,8.78
2019-02-16T19:59:36.171Z,8.95
2019-02-16T20:02:33.379Z,8.23
2019-02-16T20:05:26.161Z,8.50
2019-02-16T20:08:15.709Z,8.38
2019-02-16T20:11:05.388Z,8.80
2019-02-16T20:14:03.007Z,8.65
2019-02-16T20:16:43.571Z,8.83
2019-02-16T20:19:26.221Z,8.20
2019-02-16T20:22:08.201Z,8.90
2019-02-16T20:24:56.386Z,9.20
2019-02-16T20:27:45.916Z,8.85
2019-02-16T20:30:29.433Z,9.38
2019-02-16T20:33:10.332Z,8.65
2019-02-16T20:36:04.876Z,9.03
2019-02-16T20:38:54.518Z,8.85
2019-02-16T20:41:39.030Z,8.43
2019-02-16T20:44:44.029Z,8.98
2019-02-16T20:47:39.951Z,8.05
2019-02-16T20:50:26.482Z,8.35
2019-02-16T20:53:13.320Z,8.03
2019-02-16T20:56:01.073Z,7.70
2019-02-16T20:58:41.671Z,8.53
2019-02-16T21:01:43.316Z,8.60
2019-02-16T21:04:27.908Z,8.05
2019-02-16T21:07:23.697Z,8.08
2019-02-16T21:10:04.448Z,7.60
2019-02-16T21:12:51.129Z,7.87
2019-02-16T21:15:46.787Z,7.67
2019-02-16T21:18:27.669Z,7.90
2019-02-16T21:21:16.879Z,7.50
2019-02-16T21:24:00.258Z,8.30
2019-02-16T21:26:52.734Z,8.33
2019-02-16T21:29:47.359Z,7.67
2019-02-16T21:32:55.119Z,7.75
2019-02-16T21:35:43.485Z,8.08
2019-02-16T21:38:41.864Z,7.50
2019-02-16T21:41:37.275Z,7.47
2019-02-16T21:44:25.528Z,8.00
2019-02-16T21:47:08.852Z,7.90
2019-02-16T21:50:03.793Z,7.83
2019-02-16T21:52:56.426Z,7.72
2019-02-16T21:56:04.343Z,7.70
2019-02-16T21:59:07.501Z,7.30
2019-02-16T22:01:59.639Z,7.15
2019-02-16T22:04:37.431Z,8.13
2019-02-16T22:07:25.378Z,7.65
2019-02-16T22:10:36.104Z,7.50
2019-02-16T22:13:06.208Z,7.25
2019-02-16T22:15:38.723Z,7.50
2019-02-16T22:18:09.322Z,7.28
2019-02-16T22:20:39.815Z,7.00
2019-02-16T22:23:10.231Z,7.55
2019-02-16T22:25:40.476Z,7.28
2019-02-16T22:28:18.263Z,7.65
2019-02-16T22:30:42.807Z,7.95
2019-02-16T22:33:13.320Z,7.35
2019-02-16T22:35:44.026Z,7.12
2019-02-16T22:38:14.414Z,6.87
2019-02-16T22:40:44.794Z,7.95
2019-02-16T22:43:15.155Z,7.00
2019-02-16T22:45:45.443Z,8.05
2019-02-16T22:48:15.820Z,7.45
2019-02-16T22:50:46.146Z,7.90
2019-02-16T22:53:16.606Z,7.47
2019-02-16T22:55:46.924Z,6.85
2019-02-16T22:58:17.437Z,6.67
2019-02-16T23:00:49.088Z,7.22
2019-02-16T23:03:21.049Z,6.92
2019-02-16T23:05:51.371Z,7.10
2019-02-16T23:08:21.639Z,7.25
2019-02-16T23:10:52.265Z,6.95
2019-02-16T23:13:22.528Z,6.87
2019-02-16T23:15:53.993Z,7.22
2019-02-16T23:18:24.417Z,6.90
2019-02-16T23:20:54.742Z,7.67
2019-02-16T23:23:25.195Z,7.40
2019-02-16T23:25:55.552Z,6.53
2019-02-16T23:28:25.949Z,7.72
2019-02-16T23:30:56.366Z,6.87
2019-02-16T23:33:26.766Z,6.50
2019-02-16T23:35:57.081Z,7.25
2019-02-16T23:38:27.423Z,7.05
2019-02-16T23:40:57.797Z,6.70
2019-02-16T23:43:28.110Z,6.58
2019-02-16T23:45:58.347Z,6.72
2019-02-16T23:48:28.690Z,7.00
2019-02-16T23:50:59.020Z,6.90
2019-02-16T23:53:29.361Z,7.28
2019-02-16T23:55:59.691Z,6.95
2019-02-16T23:58:29.925Z,6.47
